Time,TemperatureF,DewpointF,PressureIn,WindDirection,WindDirectionDegrees,WindSpeedMPH,WindSpeedGustMPH,Humidity,HourlyPrecipIn,Conditions,Clouds,dailyrainin,SolarRadiationWatts/m^2,SoftwareType,DateUTC
2013-11-04 00:02:00,39.0,33.0,-100.00,SSE,157,4.0,19.0,78,0.00,,,0.01,0.000000,,2013-11-04 06:02:00,
2013-11-04 00:10:00,40.0,34.0,-100.00,SSE,154,5.0,18.0,79,0.00,,,-99.99,0.000000,,2013-11-04 06:10:00,
2013-11-04 00:42:00,40.0,34.0,-100.00,SSE,154,5.0,18.0,79,0.00,,,-99.99,0.000000,,2013-11-04 06:42:00,
2013-11-04 00:52:00,40.0,34.0,-100.00,SSE,154,5.0,18.0,79,0.00,,,-99.99,0.000000,,2013-11-04 06:52:00,
2013-11-04 01:01:00,40.0,34.0,-100.00,SSE,154,5.0,18.0,79,0.00,,,-99.99,0.000000,,2013-11-04 07:01:00,
2013-11-04 01:10:00,40.0,34.0,-100.00,SSE,150,5.0,16.0,80,0.00,,,0.01,0.000000,,2013-11-04 07:10:00,
2013-11-04 01:43:00,40.0,34.0,-100.00,SSE,150,5.0,16.0,80,0.00,,,0.01,0.000000,,2013-11-04 07:43:00,
2013-11-04 01:52:00,40.0,34.0,-100.00,SSE,150,5.0,16.0,80,0.00,,,0.01,0.000000,,2013-11-04 07:52:00,
2013-11-04 02:02:00,40.0,34.0,-100.00,SSE,150,5.0,16.0,80,0.00,,,0.01,0.000000,,2013-11-04 08:02:00,
2013-11-04 02:10:00,40.0,34.0,-100.00,SSE,162,5.0,20.0,80,0.00,,,0.01,0.000000,,2013-11-04 08:10:00,
2013-11-04 02:42:00,40.0,34.0,-100.00,SSE,162,5.0,20.0,80,0.00,,,0.01,0.000000,,2013-11-04 08:42:00,
2013-11-04 02:52:00,40.0,34.0,-100.00,SSE,162,5.0,20.0,80,0.00,,,0.01,0.000000,,2013-11-04 08:52:00,
2013-11-04 03:02:00,40.0,34.0,-100.00,SSE,162,5.0,20.0,80,0.00,,,0.01,0.000000,,2013-11-04 09:02:00,
2013-11-04 03:10:00,40.0,35.0,-100.00,SSE,156,5.0,14.0,81,0.00,,,0.01,0.000000,,2013-11-04 09:10:00,
2013-11-04 03:43:00,40.0,35.0,-100.00,SSE,156,5.0,14.0,81,0.00,,,0.01,0.000000,,2013-11-04 09:43:00,
2013-11-04 03:53:00,40.0,35.0,-100.00,SSE,156,5.0,14.0,81,0.00,,,0.01,0.000000,,2013-11-04 09:53:00,
2013-11-04 04:03:00,40.0,35.0,-100.00,SSE,156,5.0,14.0,81,0.00,,,0.01,0.000000,,2013-11-04 10:03:00,
2013-11-04 04:10:00,40.0,35.0,-100.00,SSE,147,5.0,13.0,82,0.00,,,0.01,0.000000,,2013-11-04 10:10:00,
2013-11-04 04:42:00,40.0,35.0,-100.00,SSE,147,5.0,13.0,82,0.00,,,0.01,0.000000,,2013-11-04 10:42:00,
2013-11-04 04:52:00,40.0,35.0,-100.00,SSE,147,5.0,13.0,82,0.00,,,0.01,0.000000,,2013-11-04 10:52:00,
2013-11-04 05:02:00,40.0,35.0,-100.00,SSE,147,5.0,13.0,82,0.00,,,0.01,0.000000,,2013-11-04 11:02:00,
2013-11-04 05:10:00,41.0,36.0,-100.00,SSE,160,5.0,18.0,81,0.00,,,0.01,0.000000,,2013-11-04 11:10:00,
2013-11-04 05:43:00,41.0,36.0,-100.00,SSE,160,5.0,18.0,81,0.00,,,0.01,0.000000,,2013-11-04 11:43:00,
2013-11-04 05:52:00,41.0,36.0,-100.00,SSE,160,5.0,18.0,81,0.00,,,0.01,0.000000,,2013-11-04 11:52:00,
2013-11-04 06:02:00,41.0,36.0,-100.00,SSE,160,5.0,18.0,81,0.00,,,0.01,0.000000,,2013-11-04 12:02:00,
2013-11-04 06:10:00,40.0,35.0,-100.00,SSE,152,5.0,17.0,82,0.00,,,0.01,0.000000,,2013-11-04 12:10:00,
2013-11-04 06:42:00,40.0,35.0,-100.00,SSE,152,5.0,17.0,82,0.00,,,0.01,0.000000,,2013-11-04 12:42:00,
2013-11-04 06:52:00,40.0,35.0,-100.00,SSE,152,5.0,17.0,82,0.00,,,0.01,0.000000,,2013-11-04 12:52:00,
2013-11-04 07:01:00,40.0,35.0,-100.00,SSE,152,5.0,17.0,82,0.00,,,0.01,0.000000,,2013-11-04 13:01:00,
2013-11-04 07:10:00,40.0,35.0,-100.00,SE,146,4.0,16.0,81,0.00,,,0.01,2.000000,,2013-11-04 13:10:00,
2013-11-04 07:42:00,40.0,35.0,-100.00,SE,146,4.0,16.0,81,0.00,,,0.01,2.000000,,2013-11-04 13:42:00,
2013-11-04 07:52:00,40.0,35.0,-100.00,SE,146,4.0,16.0,81,0.00,,,0.01,2.000000,,2013-11-04 13:52:00,
2013-11-04 08:02:00,40.0,35.0,-100.00,SE,146,4.0,16.0,81,0.00,,,0.01,2.000000,,2013-11-04 14:02:00,
2013-11-04 08:10:00,42.0,35.0,-100.00,South,169,5.0,18.0,75,0.00,,,0.01,24.000000,,2013-11-04 14:10:00,
2013-11-04 08:42:00,42.0,35.0,-100.00,South,169,5.0,18.0,75,0.00,,,0.01,24.000000,,2013-11-04 14:42:00,
2013-11-04 08:52:00,42.0,35.0,-100.00,South,169,5.0,18.0,75,0.00,,,0.01,24.000000,,2013-11-04 14:52:00,
2013-11-04 09:02:00,42.0,35.0,-100.00,South,169,5.0,18.0,75,0.00,,,0.01,24.000000,,2013-11-04 15:02:00,
2013-11-04 09:10:00,44.0,35.0,-100.00,South,172,6.0,17.0,71,0.00,,,0.01,51.000000,,2013-11-04 15:10:00,
2013-11-04 09:42:00,44.0,35.0,-100.00,South,172,6.0,17.0,71,0.00,,,0.01,51.000000,,2013-11-04 15:42:00,
2013-11-04 09:52:00,44.0,35.0,-100.00,South,172,6.0,17.0,71,0.00,,,0.01,51.000000,,2013-11-04 15:52:00,
2013-11-04 10:03:00,44.0,35.0,-100.00,South,172,6.0,17.0,71,0.00,,,0.01,51.000000,,2013-11-04 16:03:00,
2013-11-04 10:10:00,43.0,37.0,-100.00,South,173,6.0,20.0,79,0.00,,,0.01,58.000000,,2013-11-04 16:10:00,
2013-11-04 10:43:00,43.0,37.0,-100.00,South,173,6.0,20.0,79,0.00,,,0.01,58.000000,,2013-11-04 16:43:00,
2013-11-04 10:53:00,43.0,37.0,-100.00,South,173,6.0,20.0,79,0.00,,,0.01,58.000000,,2013-11-04 16:53:00,
2013-11-04 11:03:00,43.0,37.0,-100.00,South,173,6.0,20.0,79,0.00,,,0.01,58.000000,,2013-11-04 17:03:00,
2013-11-04 11:10:00,41.0,39.0,-100.00,South,172,4.0,16.0,92,0.05,,,-99.99,48.000000,,2013-11-04 17:10:00,
2013-11-04 11:42:00,41.0,39.0,-100.00,South,172,4.0,16.0,92,0.05,,,-99.99,48.000000,,2013-11-04 17:42:00,
2013-11-04 11:53:00,41.0,39.0,-100.00,South,172,4.0,16.0,92,0.05,,,-99.99,48.000000,,2013-11-04 17:53:00,
2013-11-04 12:01:00,41.0,39.0,-100.00,South,172,4.0,16.0,92,0.05,,,-99.99,48.000000,,2013-11-04 18:01:00,
2013-11-04 12:10:00,44.0,39.0,-100.00,SSE,153,4.0,13.0,84,0.00,,,0.05,84.000000,,2013-11-04 18:10:00,
2013-11-04 12:42:00,44.0,39.0,-100.00,SSE,153,4.0,13.0,84,0.00,,,0.05,84.000000,,2013-11-04 18:42:00,
2013-11-04 12:52:00,44.0,39.0,-100.00,SSE,153,4.0,13.0,84,0.00,,,0.05,84.000000,,2013-11-04 18:52:00,
2013-11-04 13:01:00,44.0,39.0,-100.00,SSE,153,4.0,13.0,84,0.00,,,0.05,84.000000,,2013-11-04 19:01:00,
2013-11-04 13:10:00,45.0,37.0,-100.00,SSE,167,6.0,17.0,73,0.00,,,0.05,99.000000,,2013-11-04 19:10:00,
2013-11-04 13:42:00,45.0,37.0,-100.00,SSE,167,6.0,17.0,73,0.00,,,0.05,99.000000,,2013-11-04 19:42:00,
2013-11-04 13:52:00,45.0,37.0,-100.00,SSE,167,6.0,17.0,73,0.00,,,0.05,99.000000,,2013-11-04 19:52:00,
2013-11-04 14:01:00,45.0,37.0,-100.00,SSE,167,6.0,17.0,73,0.00,,,0.05,99.000000,,2013-11-04 20:01:00,
2013-11-04 14:10:00,45.0,37.0,-100.00,South,177,6.0,18.0,72,0.00,,,0.05,39.000000,,2013-11-04 20:10:00,
2013-11-04 14:42:00,45.0,37.0,-100.00,South,177,6.0,18.0,72,0.00,,,0.05,39.000000,,2013-11-04 20:42:00,
2013-11-04 14:52:00,45.0,37.0,-100.00,South,177,6.0,18.0,72,0.00,,,0.05,39.000000,,2013-11-04 20:52:00,
2013-11-04 15:03:00,45.0,37.0,-100.00,South,177,6.0,18.0,72,0.00,,,0.05,39.000000,,2013-11-04 21:03:00,
2013-11-04 15:10:00,43.0,40.0,-100.00,South,184,5.0,16.0,89,0.01,,,0.06,17.000000,,2013-11-04 21:10:00,
2013-11-04 15:45:00,43.0,40.0,-100.00,South,184,5.0,16.0,89,0.01,,,0.06,17.000000,,2013-11-04 21:45:00,
2013-11-04 15:54:00,43.0,40.0,-100.00,South,184,5.0,16.0,89,0.01,,,0.06,17.000000,,2013-11-04 21:54:00,
2013-11-04 16:04:00,43.0,40.0,-100.00,South,184,5.0,16.0,89,0.01,,,0.06,17.000000,,2013-11-04 22:04:00,
2013-11-04 16:10:00,42.0,41.0,-100.00,South,183,4.0,15.0,95,0.03,,,0.09,8.000000,,2013-11-04 22:10:00,
2013-11-04 16:43:00,42.0,41.0,-100.00,South,183,4.0,15.0,95,0.03,,,0.09,8.000000,,2013-11-04 22:43:00,
2013-11-04 16:53:00,42.0,41.0,-100.00,South,183,4.0,15.0,95,0.03,,,0.09,8.000000,,2013-11-04 22:53:00,
2013-11-04 17:03:00,42.0,41.0,-100.00,South,183,4.0,15.0,95,0.03,,,0.09,8.000000,,2013-11-04 23:03:00,
2013-11-04 17:10:00,42.0,41.0,-100.00,South,181,6.0,15.0,96,0.01,,,0.10,0.000000,,2013-11-04 23:10:00,
2013-11-04 17:43:00,42.0,41.0,-100.00,South,181,6.0,15.0,96,0.01,,,0.10,0.000000,,2013-11-04 23:43:00,
2013-11-04 17:53:00,42.0,41.0,-100.00,South,181,6.0,15.0,96,0.01,,,0.10,0.000000,,2013-11-04 23:53:00,
2013-11-04 18:02:00,42.0,41.0,-100.00,South,181,6.0,15.0,96,0.01,,,0.10,0.000000,,2013-11-05 00:02:00,
2013-11-04 18:10:00,42.0,41.0,-100.00,South,184,6.0,16.0,97,0.01,,,0.11,0.000000,,2013-11-05 00:10:00,
2013-11-04 18:42:00,42.0,41.0,-100.00,South,184,6.0,16.0,97,0.01,,,0.11,0.000000,,2013-11-05 00:42:00,
2013-11-04 18:52:00,42.0,41.0,-100.00,South,184,6.0,16.0,97,0.01,,,0.11,0.000000,,2013-11-05 00:52:00,
2013-11-04 19:02:00,42.0,41.0,-100.00,South,184,6.0,16.0,97,0.01,,,0.11,0.000000,,2013-11-05 01:02:00,
2013-11-04 19:10:00,43.0,42.0,-100.00,South,190,4.0,15.0,98,0.01,,,0.12,0.000000,,2013-11-05 01:10:00,
2013-11-04 19:42:00,43.0,42.0,-100.00,South,190,4.0,15.0,98,0.01,,,0.12,0.000000,,2013-11-05 01:42:00,
2013-11-04 19:52:00,43.0,42.0,-100.00,South,190,4.0,15.0,98,0.01,,,0.12,0.000000,,2013-11-05 01:52:00,
2013-11-04 20:02:00,43.0,42.0,-100.00,South,190,4.0,15.0,98,0.01,,,0.12,0.000000,,2013-11-05 02:02:00,
2013-11-04 20:10:00,43.0,42.0,-100.00,SW,220,5.0,13.0,97,0.00,,,0.12,0.000000,,2013-11-05 02:10:00,
2013-11-04 20:42:00,43.0,42.0,-100.00,SW,220,5.0,13.0,97,0.00,,,0.12,0.000000,,2013-11-05 02:42:00,
2013-11-04 20:52:00,43.0,42.0,-100.00,SW,220,5.0,13.0,97,0.00,,,0.12,0.000000,,2013-11-05 02:52:00,
2013-11-04 21:02:00,43.0,42.0,-100.00,SW,220,5.0,13.0,97,0.00,,,0.12,0.000000,,2013-11-05 03:02:00,
2013-11-04 21:10:00,43.0,42.0,-100.00,SSW,209,4.0,14.0,96,0.00,,,0.12,0.000000,,2013-11-05 03:10:00,
2013-11-04 21:44:00,43.0,42.0,-100.00,SSW,209,4.0,14.0,96,0.00,,,0.12,0.000000,,2013-11-05 03:44:00,
2013-11-04 21:54:00,43.0,42.0,-100.00,SSW,209,4.0,14.0,96,0.00,,,0.12,0.000000,,2013-11-05 03:54:00,
2013-11-04 22:03:00,43.0,42.0,-100.00,SSW,209,4.0,14.0,96,0.00,,,0.12,0.000000,,2013-11-05 04:03:00,
2013-11-04 22:10:00,42.0,40.0,-100.00,WSW,243,2.0,11.0,91,0.00,,,0.12,0.000000,,2013-11-05 04:10:00,
2013-11-04 22:43:00,42.0,40.0,-100.00,WSW,243,2.0,11.0,91,0.00,,,0.12,0.000000,,2013-11-05 04:43:00,
2013-11-04 22:53:00,42.0,40.0,-100.00,WSW,243,2.0,11.0,91,0.00,,,0.12,0.000000,,2013-11-05 04:53:00,
2013-11-04 23:03:00,42.0,40.0,-100.00,WSW,243,2.0,11.0,91,0.00,,,0.12,0.000000,,2013-11-05 05:03:00,
2013-11-04 23:10:00,41.0,37.0,-100.00,West,262,3.0,10.0,87,0.00,,,0.12,0.000000,,2013-11-05 05:10:00,
2013-11-04 23:44:00,41.0,37.0,-100.00,West,262,3.0,10.0,87,0.00,,,0.12,0.000000,,2013-11-05 05:44:00,
2013-11-04 23:54:00,41.0,37.0,-100.00,West,262,3.0,10.0,87,0.00,,,0.12,0.000000,,2013-11-05 05:54:00,